Time;durP1;ratioP1;P1;durP2;ratioP2;P2;SDS_P1;SDS_P2;PMS_P1;PMS_P2;Temp;Humidity;BMP_temperature;BMP_pressure;BME280_temperature;BME280_humidity;BME280_pressure;Samples;Min_cycle;Max_cycle;Signal;HPM_P1;HPM_P2
2023/10/20 00:01:28;;;;;;;11.60;7.97;;;;;;;13.17;58.35;94536.56;5026956;28;20026;-84
2023/10/20 00:03:54;;;;;;;9.25;7.88;;;;;;;13.14;58.85;94538.28;5010512;28;20103;-85
2023/10/20 00:06:20;;;;;;;12.13;7.82;;;;;;;13.12;58.55;94543.47;5010392;28;20033;-85
2023/10/20 00:08:46;;;;;;;21.90;15.15;;;;;;;12.98;58.87;94536.63;5026623;28;20098;-85
2023/10/20 00:11:12;;;;;;;20.75;13.98;;;;;;;12.89;59.13;94530.34;5026707;28;20117;-84
2023/10/20 00:13:38;;;;;;;12.95;10.05;;;;;;;12.89;59.05;94530.34;5027205;28;20022;-84
2023/10/20 00:16:03;;;;;;;11.05;8.90;;;;;;;12.86;59.28;94523.00;5026403;28;20498;-83
2023/10/20 00:18:29;;;;;;;10.52;8.75;;;;;;;12.88;59.51;94539.84;5028448;28;20022;-85
2023/10/20 00:20:54;;;;;;;11.15;9.02;;;;;;;12.89;59.12;94522.81;5026374;28;20033;-84
2023/10/20 00:23:19;;;;;;;10.43;8.50;;;;;;;12.89;59.29;94525.56;5026596;28;20021;-84
2023/10/20 00:25:45;;;;;;;13.73;9.25;;;;;;;12.92;59.04;94526.66;5009699;28;20459;-84
2023/10/20 00:28:10;;;;;;;10.43;8.10;;;;;;;12.84;59.59;94523.44;5026768;28;20033;-84
2023/10/20 00:30:37;;;;;;;9.20;8.27;;;;;;;12.82;59.58;94509.34;5009926;28;20096;-85
2023/10/20 00:33:03;;;;;;;9.30;7.95;;;;;;;12.88;59.68;94515.00;5026430;28;20049;-85
2023/10/20 00:35:29;;;;;;;10.50;8.07;;;;;;;12.84;59.57;94509.66;5043537;28;20115;-84
2023/10/20 00:37:54;;;;;;;10.13;8.25;;;;;;;12.81;59.38;94505.06;5014155;28;20028;-84
2023/10/20 00:40:20;;;;;;;11.95;8.80;;;;;;;12.83;59.68;94497.09;5029849;28;20090;-83
2023/10/20 00:42:45;;;;;;;9.85;8.85;;;;;;;12.79;59.53;94510.28;5029432;28;20757;-84
2023/10/20 00:45:11;;;;;;;13.25;8.65;;;;;;;12.83;59.58;94502.59;5030400;28;20029;-82
2023/10/20 00:47:38;;;;;;;9.55;8.25;;;;;;;12.77;59.42;94498.94;5012972;28;20571;-83
2023/10/20 00:50:06;;;;;;;10.45;7.95;;;;;;;12.80;59.50;94502.78;5029505;28;20092;-83
2023/10/20 00:52:32;;;;;;;11.30;8.57;;;;;;;12.75;59.90;94502.16;5029834;28;20033;-83
2023/10/20 00:54:58;;;;;;;11.43;8.50;;;;;;;12.77;59.85;94515.47;5029192;28;20051;-85
2023/10/20 00:57:24;;;;;;;10.43;8.07;;;;;;;12.72;59.99;94516.09;5013705;28;20573;-83
2023/10/20 00:59:49;;;;;;;9.50;8.43;;;;;;;12.73;59.85;94506.59;5028678;28;20032;-83
2023/10/20 01:02:14;;;;;;;10.18;8.15;;;;;;;12.72;59.96;94505.06;5012895;28;20029;-83
2023/10/20 01:04:40;;;;;;;10.18;7.97;;;;;;;12.71;59.94;94506.28;5012476;28;20112;-85
2023/10/20 01:07:05;;;;;;;10.60;9.02;;;;;;;12.74;59.96;94505.38;5029295;28;20524;-83
2023/10/20 01:09:31;;;;;;;12.40;8.15;;;;;;;12.69;60.01;94497.72;5029231;28;20029;-83
2023/10/20 01:11:56;;;;;;;11.85;8.73;;;;;;;12.70;59.98;94496.50;5028877;28;20104;-82
2023/10/20 01:14:22;;;;;;;10.45;8.45;;;;;;;12.67;60.30;94487.16;5013054;28;20111;-85
2023/10/20 01:16:48;;;;;;;10.15;8.20;;;;;;;12.66;60.14;94502.16;5011565;28;20207;-84
2023/10/20 01:19:14;;;;;;;11.15;8.05;;;;;;;12.56;60.45;94486.88;5029188;28;20079;-85
2023/10/20 01:21:40;;;;;;;10.00;8.15;;;;;;;12.55;60.60;94499.09;5011608;28;20025;-83
2023/10/20 01:24:06;;;;;;;9.48;7.93;;;;;;;12.56;60.58;94492.38;5029211;28;20035;-82
2023/10/20 01:26:31;;;;;;;11.60;8.82;;;;;;;12.54;60.62;94485.78;5028602;28;20029;-83
2023/10/20 01:28:58;;;;;;;13.75;9.20;;;;;;;12.49;60.61;94479.66;5046481;28;20026;-84
2023/10/20 01:31:23;;;;;;;10.35;8.00;;;;;;;12.46;60.67;94472.31;5029149;28;20410;-84
2023/10/20 01:33:49;;;;;;;9.73;8.38;;;;;;;12.47;60.56;94473.84;5027620;28;20124;-84
2023/10/20 01:36:15;;;;;;;12.18;7.82;;;;;;;12.45;60.71;94479.06;5029302;28;20494;-84
2023/10/20 01:38:40;;;;;;;11.07;8.55;;;;;;;12.45;60.71;94470.78;5045751;28;20024;-84
2023/10/20 01:41:06;;;;;;;11.43;8.77;;;;;;;12.44;60.74;94468.47;5046798;28;20032;-83
2023/10/20 01:43:32;;;;;;;9.82;8.25;;;;;;;12.42;60.64;94466.19;5012232;28;20029;-83
2023/10/20 01:45:57;;;;;;;11.43;8.20;;;;;;;12.32;60.97;94459.13;5028229;28;20632;-86
2023/10/20 01:48:23;;;;;;;12.13;9.07;;;;;;;12.28;61.31;94472.31;5028609;28;20025;-86
2023/10/20 01:50:48;;;;;;;10.00;8.23;;;;;;;12.23;61.25;94468.19;5045946;28;20384;-83
2023/10/20 01:53:14;;;;;;;11.70;8.50;;;;;;;12.24;61.27;94471.69;5045975;28;20032;-82
2023/10/20 01:55:40;;;;;;;10.50;7.55;;;;;;;12.21;61.16;94476.16;5011892;28;20025;-85
2023/10/20 01:58:06;;;;;;;10.63;8.63;;;;;;;12.15;61.41;94482.69;5012060;28;20021;-84
2023/10/20 02:00:31;;;;;;;9.88;8.20;;;;;;;12.14;61.37;94481.94;5016671;28;20039;-84
2023/10/20 02:02:57;;;;;;;9.63;8.40;;;;;;;12.08;61.43;94477.50;5013323;28;20443;-84
2023/10/20 02:05:22;;;;;;;10.18;8.68;;;;;;;12.05;61.81;94484.69;5011812;28;20047;-84
2023/10/20 02:07:48;;;;;;;10.80;8.63;;;;;;;12.09;61.44;94485.28;5045857;28;20029;-84
2023/10/20 02:10:14;;;;;;;9.75;8.15;;;;;;;12.04;61.50;94477.63;5028459;28;20032;-83
2023/10/20 02:12:40;;;;;;;14.00;9.30;;;;;;;11.99;61.55;94470.00;5011273;28;20498;-83
2023/10/20 02:15:07;;;;;;;13.25;8.75;;;;;;;11.99;62.13;94467.25;5028384;28;20039;-83
2023/10/20 02:17:36;;;;;;;9.35;8.23;;;;;;;11.98;61.90;94462.16;5028058;28;20025;-84
2023/10/20 02:20:01;;;;;;;11.07;8.65;;;;;;;11.95;61.97;94477.63;5011592;28;20235;-84
2023/10/20 02:22:26;;;;;;;11.73;7.88;;;;;;;11.96;61.95;94482.69;5010855;28;20048;-82
2023/10/20 02:24:53;;;;;;;14.60;8.38;;;;;;;11.85;62.04;94482.34;5011271;28;20107;-84
2023/10/20 02:27:18;;;;;;;11.82;9.00;;;;;;;11.83;62.26;94490.31;5011894;28;20538;-84
2023/10/20 02:29:44;;;;;;;14.77;8.98;;;;;;;11.80;62.34;94482.16;5030306;28;20025;-84
2023/10/20 02:32:10;;;;;;;13.05;9.27;;;;;;;11.75;62.41;94480.75;5013029;28;20051;-82
2023/10/20 02:34:36;;;;;;;13.80;9.25;;;;;;;11.76;62.37;94485.06;5028130;28;20057;-82
2023/10/20 02:37:02;;;;;;;13.63;9.80;;;;;;;11.72;62.53;94464.41;5028199;28;20067;-84
2023/10/20 02:39:28;;;;;;;13.80;9.20;;;;;;;11.71;62.51;94474.66;5027477;28;20572;-84
2023/10/20 02:41:54;;;;;;;14.88;9.30;;;;;;;11.70;62.30;94473.88;5027715;28;20029;-84
2023/10/20 02:44:19;;;;;;;11.98;9.20;;;;;;;11.62;62.87;94477.38;5027889;28;20063;-86
2023/10/20 02:46:44;;;;;;;16.45;8.95;;;;;;;11.60;62.78;94468.81;5028068;28;20384;-84
2023/10/20 02:49:10;;;;;;;11.30;9.23;;;;;;;11.60;62.74;94485.31;5027967;28;20029;-84
2023/10/20 02:51:35;;;;;;;12.95;9.73;;;;;;;11.53;63.02;94488.38;5027368;28;20061;-84
2023/10/20 02:54:00;;;;;;;13.02;8.88;;;;;;;11.52;63.00;94484.06;5027988;28;20033;-83
2023/10/20 02:56:26;;;;;;;11.93;9.25;;;;;;;11.50;63.05;94478.25;5011394;28;20021;-84
2023/10/20 02:58:51;;;;;;;13.27;8.77;;;;;;;11.46;63.11;94478.38;5027969;28;20460;-86
2023/10/20 03:01:18;;;;;;;12.52;9.18;;;;;;;11.41;63.26;94460.50;5045558;28;20029;-84
2023/10/20 03:03:43;;;;;;;11.88;8.75;;;;;;;11.41;63.23;94463.25;5030273;28;20029;-83
2023/10/20 03:06:09;;;;;;;12.90;9.23;;;;;;;11.40;63.34;94463.69;5031733;28;20027;-85
2023/10/20 03:08:38;;;;;;;11.68;9.10;;;;;;;11.36;63.28;94463.84;5031796;28;20025;-84
2023/10/20 03:11:05;;;;;;;13.93;9.48;;;;;;;11.32;63.43;94476.19;5014973;28;20412;-85
2023/10/20 03:13:31;;;;;;;13.75;9.98;;;;;;;11.30;63.43;94473.91;5031031;28;20021;-85
2023/10/20 03:15:57;;;;;;;15.90;10.02;;;;;;;11.25;63.41;94466.25;5015511;28;20083;-84
2023/10/20 03:18:23;;;;;;;16.48;9.95;;;;;;;11.23;63.43;94463.16;5031087;28;20096;-84
2023/10/20 03:20:49;;;;;;;14.95;10.65;;;;;;;11.28;63.50;94475.56;5031464;28;20025;-85
2023/10/20 03:23:16;;;;;;;14.80;9.35;;;;;;;11.20;63.47;94472.34;5031010;28;20052;-84
2023/10/20 03:25:42;;;;;;;12.57;9.50;;;;;;;11.19;63.60;94472.78;5014705;28;20557;-84
2023/10/20 03:28:08;;;;;;;12.35;9.18;;;;;;;11.16;63.68;94466.19;5015025;28;20079;-84
2023/10/20 03:30:38;;;;;;;11.75;8.68;;;;;;;11.18;63.52;94469.25;5014238;28;20028;-83
2023/10/20 03:33:05;;;;;;;13.52;10.15;;;;;;;11.13;63.78;94472.63;5015274;28;20409;-86
2023/10/20 03:35:31;;;;;;;17.02;11.85;;;;;;;11.07;64.02;94468.91;5030562;28;20044;-84
2023/10/20 03:37:56;;;;;;;15.45;10.80;;;;;;;11.05;64.14;94463.84;5014852;28;20140;-85
2023/10/20 03:40:46;;;;;;;15.80;11.45;;;;;;;11.00;63.86;94447.16;5030606;28;20030;-86
2023/10/20 03:43:12;;;;;;;14.52;11.35;;;;;;;11.04;64.16;94456.06;5033305;28;20396;-86
2023/10/20 03:45:41;;;;;;;18.42;11.65;;;;;;;11.04;64.01;94453.31;5049249;28;20025;-84
2023/10/20 03:48:10;;;;;;;17.42;11.35;;;;;;;11.04;64.21;94442.31;5047941;28;20564;-85
2023/10/20 03:50:38;;;;;;;13.48;10.90;;;;;;;11.03;64.29;94449.78;5030973;28;20511;-85
2023/10/20 03:53:04;;;;;;;14.98;11.27;;;;;;;10.96;64.17;94447.31;5030394;28;20021;-85
2023/10/20 03:55:30;;;;;;;18.60;11.43;;;;;;;10.93;64.19;94441.94;5030679;28;20053;-85
2023/10/20 03:57:55;;;;;;;17.08;10.70;;;;;;;10.95;64.01;94445.75;5013776;28;20446;-84
2023/10/20 04:00:31;;;;;;;18.02;11.55;;;;;;;10.90;64.08;94449.13;5030191;28;20057;-84
2023/10/20 04:02:57;;;;;;;15.13;11.38;;;;;;;10.85;64.36;94453.22;5015631;28;20514;-83
2023/10/20 04:05:23;;;;;;;17.92;11.07;;;;;;;10.87;64.24;94433.50;5013773;28;20029;-84
2023/10/20 04:07:48;;;;;;;17.08;11.63;;;;;;;10.83;64.30;94439.13;5037001;28;20417;-84
2023/10/20 04:10:14;;;;;;;21.83;12.40;;;;;;;10.84;64.31;94435.19;5031314;28;20135;-85
2023/10/20 04:12:41;;;;;;;14.70;11.02;;;;;;;10.79;64.43;94433.03;5030499;28;20751;-84
2023/10/20 04:15:09;;;;;;;17.45;12.35;;;;;;;10.80;64.34;94433.78;5012948;28;20470;-86
2023/10/20 04:17:38;;;;;;;17.70;11.70;;;;;;;10.73;64.32;94445.81;5030425;28;20021;-85
2023/10/20 04:20:07;;;;;;;17.73;11.55;;;;;;;10.70;64.54;94454.94;5030416;28;20127;-85
2023/10/20 04:22:32;;;;;;;15.95;11.05;;;;;;;10.71;64.45;94461.97;5013278;28;20443;-86
2023/10/20 04:24:58;;;;;;;19.08;12.25;;;;;;;10.69;64.62;94466.41;5049779;28;20115;-86
2023/10/20 04:27:45;;;;;;;20.67;13.95;;;;;;;10.64;64.85;94454.75;5047664;28;20070;-86
2023/10/20 05:08:32;;;;;;;20.10;13.77;;;;;;;10.58;64.84;94450.31;5029611;28;20415;-85
2023/10/20 05:10:53;;;;;;;16.63;12.40;;;;;;;10.55;64.63;94442.94;5032147;28;20500;-84
2023/10/20 05:13:19;;;;;;;26.13;13.18;;;;;;;10.57;64.61;94459.75;5029047;28;20191;-85
2023/10/20 05:15:45;;;;;;;21.40;13.13;;;;;;;10.53;64.71;94456.38;5028546;28;20112;-85
2023/10/20 05:18:14;;;;;;;21.85;13.02;;;;;;;10.55;64.69;94457.47;5029154;28;20021;-84
2023/10/20 05:20:41;;;;;;;20.02;12.38;;;;;;;10.55;64.56;94468.47;5046934;28;20029;-85
2023/10/20 05:23:07;;;;;;;17.30;12.98;;;;;;;10.54;64.83;94466.16;5028438;28;20040;-85
2023/10/20 05:25:32;;;;;;;22.10;13.55;;;;;;;10.59;64.75;94479.31;5012311;28;20029;-85
2023/10/20 05:28:00;;;;;;;20.42;13.60;;;;;;;10.60;64.72;94489.84;5046624;28;20032;-85
2023/10/20 05:30:26;;;;;;;24.10;14.13;;;;;;;10.61;64.81;94493.41;5029667;28;20104;-85
2023/10/20 05:32:52;;;;;;;25.85;15.43;;;;;;;10.63;65.23;94493.72;5028861;28;20025;-85
2023/10/20 05:35:17;;;;;;;23.75;15.07;;;;;;;10.62;65.29;94492.94;5012134;28;20045;-85
2023/10/20 05:37:42;;;;;;;22.88;15.25;;;;;;;10.72;64.98;94498.47;5028401;28;20470;-84
2023/10/20 05:40:08;;;;;;;28.17;16.00;;;;;;;10.73;65.01;94489.03;5045882;28;20021;-81
2023/10/20 05:42:33;;;;;;;24.08;16.08;;;;;;;10.78;64.78;94491.19;5012017;28;20025;-81
2023/10/20 05:45:02;;;;;;;23.65;16.27;;;;;;;10.82;64.63;94491.84;5027706;28;20121;-81
2023/10/20 05:47:31;;;;;;;24.38;16.15;;;;;;;10.80;64.60;94486.78;5028837;28;20116;-82
2023/10/20 05:50:00;;;;;;;19.05;14.35;;;;;;;10.86;64.56;94497.97;5045932;28;20025;-82
2023/10/20 05:52:26;;;;;;;21.65;14.35;;;;;;;10.75;65.04;94494.84;5028953;28;20036;-83
2023/10/20 05:54:53;;;;;;;23.85;14.68;;;;;;;10.67;65.14;94488.84;5011062;28;20086;-81
2023/10/20 05:57:19;;;;;;;19.13;13.98;;;;;;;10.71;65.31;94492.22;5028051;28;20047;-79
2023/10/20 05:59:46;;;;;;;23.40;14.00;;;;;;;10.73;65.44;94495.31;5028310;28;20559;-80
2023/10/20 06:02:11;;;;;;;19.77;14.13;;;;;;;10.83;65.35;94496.88;5027399;28;20044;-82
2023/10/20 06:04:37;;;;;;;21.48;14.82;;;;;;;10.90;65.35;94488.38;5027911;28;20028;-84
2023/10/20 06:07:03;;;;;;;21.77;14.65;;;;;;;11.02;65.08;94499.75;5010589;28;20028;-83
2023/10/20 06:09:29;;;;;;;18.15;13.88;;;;;;;11.01;65.23;94496.25;5027912;28;20032;-84
2023/10/20 06:11:54;;;;;;;20.83;13.68;;;;;;;11.14;64.89;94496.16;5010460;28;20039;-84
2023/10/20 06:14:20;;;;;;;20.23;14.45;;;;;;;11.23;64.98;94506.41;5028120;28;20028;-81
2023/10/20 06:16:46;;;;;;;21.38;13.98;;;;;;;11.33;64.74;94505.25;5011262;28;20032;-82
2023/10/20 06:19:12;;;;;;;28.80;15.63;;;;;;;11.38;64.66;94497.16;5012124;28;20029;-80
2023/10/20 06:21:38;;;;;;;18.60;13.75;;;;;;;11.50;64.58;94501.03;5011897;28;20032;-81
2023/10/20 06:24:04;;;;;;;21.45;14.43;;;;;;;11.61;64.40;94497.88;5011214;28;20068;-83
2023/10/20 06:26:29;;;;;;;20.02;14.25;;;;;;;11.73;64.28;94496.22;5028363;28;20124;-82
2023/10/20 06:28:55;;;;;;;19.13;13.98;;;;;;;11.80;64.25;94493.94;5027372;28;20421;-81
2023/10/20 06:34:12;;;;;;;18.80;14.10;;;;;;;12.05;63.93;94475.66;5029475;28;20025;-81
2023/10/20 06:36:46;;;;;;;18.33;14.05;;;;;;;12.19;63.52;94477.81;5012806;28;20498;-83
2023/10/20 06:39:13;;;;;;;21.17;15.40;;;;;;;12.35;63.50;94487.78;5017942;28;20025;-81
2023/10/20 06:41:38;;;;;;;20.58;14.98;;;;;;;12.47;63.35;94487.63;5033810;28;20052;-81
2023/10/20 06:44:04;;;;;;;21.50;15.93;;;;;;;12.61;63.14;94497.25;5051966;28;20511;-81
2023/10/20 06:46:31;;;;;;;22.98;17.33;;;;;;;12.76;62.98;94500.94;5033458;28;20040;-81
2023/10/20 06:48:56;;;;;;;20.40;16.05;;;;;;;12.92;62.61;94499.06;5051776;28;20039;-82
2023/10/20 06:51:23;;;;;;;24.23;18.40;;;;;;;13.10;62.21;94493.50;5017546;28;20414;-81
2023/10/20 06:53:49;;;;;;;23.60;17.27;;;;;;;13.29;62.14;94494.25;5051588;28;20039;-82
2023/10/20 06:56:14;;;;;;;19.77;16.08;;;;;;;13.44;61.27;94489.59;5034644;28;20543;-82
2023/10/20 06:58:39;;;;;;;24.50;16.02;;;;;;;13.64;60.65;94496.56;5016998;28;20496;-83
2023/10/20 07:01:05;;;;;;;20.45;15.85;;;;;;;13.77;60.36;94499.91;5017365;28;20029;-82
2023/10/20 07:03:32;;;;;;;21.20;14.57;;;;;;;13.89;60.02;94498.91;5033909;28;20103;-82
2023/10/20 07:05:58;;;;;;;21.98;14.90;;;;;;;14.07;59.00;94492.50;5033980;28;20123;-84
2023/10/20 07:08:24;;;;;;;20.45;14.48;;;;;;;14.22;58.73;94496.09;5016779;28;20024;-84
2023/10/20 07:10:50;;;;;;;21.00;15.40;;;;;;;14.42;58.71;94497.50;5033623;28;20120;-84
2023/10/20 07:13:17;;;;;;;20.00;14.20;;;;;;;14.56;58.18;94505.84;5034434;28;20025;-84
2023/10/20 07:15:43;;;;;;;21.20;14.75;;;;;;;14.68;57.84;94497.75;5033606;28;20053;-84
2023/10/20 07:18:11;;;;;;;19.70;15.15;;;;;;;14.81;57.38;94495.53;5034045;28;20136;-83
2023/10/20 07:20:38;;;;;;;19.08;14.52;;;;;;;14.97;56.69;94500.59;5033214;28;20462;-84
2023/10/20 07:23:05;;;;;;;20.52;15.07;;;;;;;15.05;56.24;94495.44;5033906;28;20103;-84
2023/10/20 07:25:31;;;;;;;21.80;15.07;;;;;;;15.14;56.10;94500.91;5033486;28;20025;-84
2023/10/20 07:27:57;;;;;;;20.65;15.10;;;;;;;15.23;55.53;94488.94;5017301;28;20116;-84
2023/10/20 07:30:23;;;;;;;21.33;14.77;;;;;;;15.33;55.72;94501.47;5034188;28;20032;-85
2023/10/20 07:32:51;;;;;;;21.65;15.38;;;;;;;15.47;55.53;94500.66;5017024;28;20565;-83
2023/10/20 07:35:17;;;;;;;20.95;15.75;;;;;;;15.58;55.09;94506.38;5034519;28;20045;-84
2023/10/20 07:37:43;;;;;;;24.30;17.75;;;;;;;15.68;54.59;94509.09;5033544;28;20037;-84
2023/10/20 07:40:10;;;;;;;24.02;17.23;;;;;;;15.80;54.06;94503.22;5017451;28;20394;-83
2023/10/20 07:42:36;;;;;;;23.75;17.02;;;;;;;15.90;53.46;94503.88;5033447;28;20025;-83
2023/10/20 07:45:01;;;;;;;26.23;17.50;;;;;;;16.05;53.28;94509.38;5033648;28;20100;-84
2023/10/20 07:47:27;;;;;;;23.77;16.20;;;;;;;16.23;52.59;94498.03;5033833;28;20087;-84
2023/10/20 07:49:53;;;;;;;22.30;15.90;;;;;;;16.57;52.46;94506.75;5030691;28;20056;-83
2023/10/20 07:52:19;;;;;;;33.85;19.58;;;;;;;16.84;51.83;94502.81;5030984;28;20049;-83
2023/10/20 07:54:45;;;;;;;24.80;17.83;;;;;;;17.21;50.84;94509.28;5013935;28;20119;-84
2023/10/20 07:57:10;;;;;;;28.23;17.23;;;;;;;17.48;50.39;94507.22;5014362;28;20048;-84
2023/10/20 07:59:36;;;;;;;21.88;15.02;;;;;;;17.75;49.25;94519.84;5030050;28;20029;-84
2023/10/20 08:02:05;;;;;;;26.08;15.20;;;;;;;18.04;49.14;94516.00;5048309;28;20032;-83
2023/10/20 08:04:34;;;;;;;21.77;14.88;;;;;;;18.23;48.32;94503.22;5048257;28;20071;-81
2023/10/20 08:06:59;;;;;;;21.08;15.07;;;;;;;18.41;47.63;94504.06;5029802;28;20033;-82
2023/10/20 08:09:27;;;;;;;19.48;14.25;;;;;;;18.74;46.93;94504.25;5030648;28;20099;-83
2023/10/20 08:11:53;;;;;;;16.75;11.50;;;;;;;19.09;46.17;94505.88;5031117;28;20419;-83
2023/10/20 08:14:20;;;;;;;13.90;9.80;;;;;;;19.26;45.34;94495.50;5015617;28;20021;-83
2023/10/20 08:16:46;;;;;;;12.40;7.85;;;;;;;19.54;45.22;94500.38;5014095;28;20560;-83
2023/10/20 08:19:11;;;;;;;13.38;9.10;;;;;;;19.88;43.89;94507.47;5030063;28;20025;-82
2023/10/20 08:21:36;;;;;;;12.77;9.57;;;;;;;20.25;43.12;94509.22;5030236;28;20032;-84
2023/10/20 08:24:04;;;;;;;12.10;8.68;;;;;;;20.67;42.81;94510.13;5013880;28;20029;-83
2023/10/20 08:26:31;;;;;;;11.32;8.95;;;;;;;21.20;41.57;94516.47;5014188;28;20036;-83
2023/10/20 08:28:57;;;;;;;12.75;9.07;;;;;;;21.86;40.32;94500.53;5029631;28;20491;-83
2023/10/20 08:31:23;;;;;;;10.73;8.25;;;;;;;22.61;39.03;94493.72;5030039;28;20060;-84
2023/10/20 08:33:48;;;;;;;17.15;8.30;;;;;;;23.56;37.09;94498.06;5012910;28;20063;-83
2023/10/20 08:36:15;;;;;;;10.13;8.35;;;;;;;24.52;34.71;94486.78;5029972;28;20410;-82
2023/10/20 08:38:47;;;;;;;12.10;7.80;;;;;;;25.48;33.28;94494.03;5029445;28;20117;-80
2023/10/20 08:41:22;;;;;;;9.07;6.70;;;;;;;26.46;32.26;94490.63;5029698;28;20510;-81
2023/10/20 08:43:48;;;;;;;10.52;6.82;;;;;;;27.35;30.56;94488.66;5030065;28;20515;-81
2023/10/20 08:46:16;;;;;;;8.82;7.10;;;;;;;28.20;28.86;94488.28;5046845;28;20404;-83
2023/10/20 08:48:45;;;;;;;12.18;6.90;;;;;;;28.83;28.16;94491.25;5030233;28;20439;-80
2023/10/20 08:51:13;;;;;;;12.75;8.07;;;;;;;29.31;26.73;94482.84;5028832;28;20028;-81
2023/10/20 08:53:39;;;;;;;14.02;8.07;;;;;;;29.76;26.41;94489.59;5013298;28;20029;-81
2023/10/20 08:56:06;;;;;;;12.30;7.88;;;;;;;30.42;25.98;94490.31;5028984;28;20032;-83
2023/10/20 08:58:32;;;;;;;11.27;7.82;;;;;;;30.98;24.95;94472.97;5029415;28;20040;-82
2023/10/20 09:00:58;;;;;;;13.10;6.88;;;;;;;31.64;23.79;94477.66;5028774;28;20025;-80
2023/10/20 09:03:25;;;;;;;10.30;7.53;;;;;;;32.19;23.14;94475.56;5028812;28;20186;-82
2023/10/20 09:06:07;;;;;;;13.00;9.85;;;;;;;32.53;22.99;94479.59;5029848;28;20020;-80
2023/10/20 09:08:37;;;;;;;10.88;8.10;;;;;;;32.57;22.16;94480.63;5028840;28;20032;-81
2023/10/20 09:11:06;;;;;;;17.10;8.82;;;;;;;32.99;22.25;94480.31;5029248;28;20053;-81
2023/10/20 09:13:34;;;;;;;13.13;8.70;;;;;;;33.74;21.51;94470.81;5028496;28;20025;-81
2023/10/20 09:16:01;;;;;;;8.70;7.25;;;;;;;34.19;20.45;94464.72;5029318;28;20456;-82
2023/10/20 09:18:26;;;;;;;12.27;7.00;;;;;;;34.49;20.30;94466.84;5046850;28;20025;-82
2023/10/20 09:20:52;;;;;;;12.02;6.85;;;;;;;35.03;19.84;94474.78;5028609;28;20033;-82
2023/10/20 09:23:17;;;;;;;15.32;7.80;;;;;;;35.48;19.33;94452.03;5028886;28;20029;-82
2023/10/20 09:25:43;;;;;;;14.75;7.15;;;;;;;35.77;18.71;94459.56;5028330;28;20025;-82
2023/10/20 09:28:08;;;;;;;14.63;7.55;;;;;;;35.55;19.46;94458.88;5012494;28;20028;-82
2023/10/20 09:30:34;;;;;;;14.88;7.40;;;;;;;34.80;20.05;94446.06;5027907;28;20037;-82
2023/10/20 09:33:00;;;;;;;12.88;7.50;;;;;;;33.86;20.88;94436.00;5012155;28;20033;-82
2023/10/20 09:35:26;;;;;;;12.52;7.20;;;;;;;33.14;21.77;94435.78;5011809;28;20045;-83
2023/10/20 09:37:55;;;;;;;9.20;7.32;;;;;;;32.47;22.29;94435.13;5028424;28;20056;-81
2023/10/20 09:40:21;;;;;;;9.85;6.85;;;;;;;31.79;23.29;94427.66;5028660;28;20118;-82
2023/10/20 09:42:59;;;;;;;12.48;7.35;;;;;;;31.13;23.65;94424.53;5028133;28;20106;-82
2023/10/20 09:45:36;;;;;;;12.10;8.18;;;;;;;30.61;24.80;94433.78;5028229;28;20167;-82
2023/10/20 09:48:08;;;;;;;12.30;6.78;;;;;;;30.42;24.87;94434.34;5012004;28;20443;-82
2023/10/20 09:50:35;;;;;;;11.32;7.05;;;;;;;30.20;25.29;94420.38;5028309;28;20076;-82
2023/10/20 09:53:01;;;;;;;11.30;6.53;;;;;;;30.59;24.67;94416.59;5028512;28;20041;-82
2023/10/20 09:55:26;;;;;;;14.30;7.25;;;;;;;30.42;24.77;94410.91;5011427;28;20484;-83
2023/10/20 09:57:52;;;;;;;19.25;8.23;;;;;;;30.47;24.86;94392.16;5046582;28;20059;-82
2023/10/20 10:00:30;;;;;;;15.57;8.80;;;;;;;30.71;24.98;94396.28;5027414;28;20075;-82
2023/10/20 10:02:59;;;;;;;13.95;6.53;;;;;;;30.72;24.79;94395.69;5028545;28;20094;-82
2023/10/20 10:05:25;;;;;;;13.38;7.18;;;;;;;30.47;24.67;94384.41;5028359;28;20024;-82
2023/10/20 10:08:11;;;;;;;10.40;6.57;;;;;;;30.63;24.80;94397.09;5029125;28;20582;-82
2023/10/20 10:10:36;;;;;;;13.23;6.15;;;;;;;30.74;24.47;94393.03;5043592;28;20024;-83
2023/10/20 10:13:07;;;;;;;11.40;6.18;;;;;;;30.31;25.26;94378.13;5010626;28;20025;-79
2023/10/20 10:15:46;;;;;;;13.07;6.18;;;;;;;30.09;25.46;94382.66;5028225;28;20025;-80
2023/10/20 10:18:13;;;;;;;11.85;6.75;;;;;;;29.75;26.06;94380.47;5011310;28;20110;-81
2023/10/20 10:20:48;;;;;;;11.52;6.30;;;;;;;29.28;26.22;94379.25;5028185;28;20025;-80
2023/10/20 10:23:17;;;;;;;11.40;5.82;;;;;;;29.29;26.19;94363.78;5046050;28;20029;-80
2023/10/20 10:25:47;;;;;;;10.23;6.10;;;;;;;29.61;25.85;94368.69;5011385;28;20506;-80
2023/10/20 10:28:13;;;;;;;13.13;7.10;;;;;;;30.02;25.45;94362.88;5028538;28;20079;-80
2023/10/20 10:30:40;;;;;;;20.23;8.43;;;;;;;31.08;24.49;94366.72;5027036;28;20032;-79
2023/10/20 10:33:10;;;;;;;14.35;6.90;;;;;;;32.28;22.96;94363.94;5045901;28;20444;-79
2023/10/20 10:35:36;;;;;;;10.32;6.28;;;;;;;33.57;21.81;94365.59;5026725;28;20049;-80
2023/10/20 10:38:06;;;;;;;14.68;7.10;;;;;;;34.67;20.20;94373.16;5011320;28;20043;-80
2023/10/20 10:40:32;;;;;;;12.60;5.35;;;;;;;35.52;18.85;94365.84;5027985;28;20025;-80
2023/10/20 10:42:57;;;;;;;10.15;5.00;;;;;;;36.16;18.27;94357.69;5010934;28;20116;-81
2023/10/20 10:45:27;;;;;;;12.48;4.93;;;;;;;37.03;18.04;94372.09;5011704;28;20056;-81
2023/10/20 10:48:08;;;;;;;10.23;4.88;;;;;;;37.95;16.77;94352.16;5027190;28;20025;-80
2023/10/20 10:50:43;;;;;;;7.27;4.57;;;;;;;38.35;16.40;94349.97;5045369;28;20029;-80
2023/10/20 10:53:10;;;;;;;16.00;4.55;;;;;;;39.02;15.63;94365.63;5027157;28;20067;-81
2023/10/20 10:55:35;;;;;;;10.35;3.90;;;;;;;39.34;15.25;94362.88;5027237;28;20113;-80
2023/10/20 10:58:12;;;;;;;9.15;3.92;;;;;;;39.93;14.76;94367.84;5027911;28;20049;-80
2023/10/20 11:00:39;;;;;;;7.88;3.88;;;;;;;40.78;14.16;94353.66;5044752;28;20029;-81
2023/10/20 11:03:04;;;;;;;9.13;3.97;;;;;;;41.39;13.67;94353.31;5011673;28;20511;-80
2023/10/20 11:05:32;;;;;;;7.65;4.18;;;;;;;42.10;13.51;94344.56;5027056;28;20106;-80
2023/10/20 11:08:05;;;;;;;7.75;3.60;;;;;;;42.42;12.71;94355.84;5026982;28;20021;-81
2023/10/20 11:10:35;;;;;;;10.25;3.80;;;;;;;42.50;12.57;94340.94;5027108;28;20518;-81
2023/10/20 11:13:08;;;;;;;7.32;3.13;;;;;;;43.17;12.18;94341.13;5010514;28;20025;-80
2023/10/20 11:15:35;;;;;;;9.65;3.65;;;;;;;43.23;12.24;94340.59;5011347;28;20171;-81
2023/10/20 11:18:02;;;;;;;8.50;3.58;;;;;;;44.05;11.47;94332.34;5026796;28;20032;-81
2023/10/20 11:20:29;;;;;;;9.50;3.17;;;;;;;44.69;11.11;94343.59;5045740;28;20029;-82
2023/10/20 11:22:55;;;;;;;5.85;2.70;;;;;;;45.20;10.02;94318.84;5010060;28;20120;-80
2023/10/20 11:25:22;;;;;;;12.13;2.92;;;;;;;45.45;10.19;94317.28;5013632;28;20033;-80
2023/10/20 11:27:54;;;;;;;14.32;3.30;;;;;;;45.53;10.52;94309.50;5030262;28;20029;-82
2023/10/20 11:30:53;;;;;;;8.52;3.25;;;;;;;44.07;11.32;94311.41;5048941;28;20434;-82
2023/10/20 11:33:19;;;;;;;10.40;3.13;;;;;;;42.89;12.08;94296.81;4951988;28;20088;-82
2023/10/20 11:35:45;;;;;;;9.95;3.10;;;;;;;41.98;12.59;94302.94;4950777;28;20054;-82
2023/10/20 11:38:13;;;;;;;7.28;3.40;;;;;;;41.32;13.50;94306.19;4967673;28;20034;-82
2023/10/20 11:40:41;;;;;;;12.25;3.72;;;;;;;40.63;13.86;94302.59;4967151;28;20065;-82
2023/10/20 11:43:06;;;;;;;12.70;3.88;;;;;;;39.86;14.48;94309.28;4951117;28;20034;-81
2023/10/20 11:45:32;;;;;;;8.00;3.10;;;;;;;38.72;14.41;94295.16;4951284;28;20037;-82
2023/10/20 11:47:58;;;;;;;6.22;2.88;;;;;;;37.56;15.42;94294.81;4966960;28;20562;-80
2023/10/20 11:50:23;;;;;;;7.95;3.95;;;;;;;37.26;16.45;94299.63;4935665;28;20150;-83
2023/10/20 11:52:49;;;;;;;12.70;3.70;;;;;;;36.82;17.19;94287.09;4950280;28;20521;-83
2023/10/20 11:55:15;;;;;;;11.60;3.42;;;;;;;36.43;17.27;94304.94;4951360;28;20039;-82
2023/10/20 11:57:41;;;;;;;10.38;3.95;;;;;;;36.13;17.63;94301.72;4966976;28;20027;-83
2023/10/20 12:00:09;;;;;;;12.10;3.15;;;;;;;35.78;17.55;94295.25;4970353;28;20043;-83
2023/10/20 12:02:35;;;;;;;10.93;3.05;;;;;;;35.38;16.78;94277.06;4951144;28;20041;-83
2023/10/20 12:05:00;;;;;;;8.68;2.88;;;;;;;35.04;16.49;94284.19;4950999;28;20027;-83